createdAt,value
2023-03-01T00:03:21.137Z,-1.34
2023-03-01T00:13:22.471Z,-1.26
2023-03-01T00:23:23.816Z,-1.25
2023-03-01T00:33:25.340Z,-1.19
2023-03-01T00:43:26.585Z,-1.39
2023-03-01T00:53:27.832Z,-1.47
2023-03-01T01:03:29.100Z,-1.57
2023-03-01T01:13:30.397Z,-1.72
2023-03-01T01:23:31.702Z,-1.77
2023-03-01T01:33:33.115Z,-1.90
2023-03-01T01:43:34.338Z,-1.94
2023-03-01T01:53:35.571Z,-2.01
2023-03-01T02:03:38.490Z,-2.11
2023-03-01T02:13:39.976Z,-2.10
2023-03-01T02:23:41.310Z,-2.21
2023-03-01T02:33:43.255Z,-2.32
2023-03-01T02:43:44.512Z,-2.26
2023-03-01T02:53:45.862Z,-2.30
2023-03-01T03:03:47.152Z,-2.47
2023-03-01T03:13:49.148Z,-2.41
2023-03-01T03:23:50.538Z,-2.47
2023-03-01T03:33:51.951Z,-2.52
2023-03-01T03:43:53.299Z,-2.59
2023-03-01T03:53:54.553Z,-2.75
2023-03-01T04:03:55.798Z,-2.83
2023-03-01T04:13:57.096Z,-2.84
2023-03-01T04:23:58.382Z,-2.92
2023-03-01T04:33:59.950Z,-2.82
2023-03-01T04:44:01.272Z,-2.82
2023-03-01T04:54:02.522Z,-2.87
2023-03-01T05:04:04.146Z,-3.05
2023-03-01T05:14:05.521Z,-3.10
2023-03-01T05:24:11.450Z,-3.11
2023-03-01T05:34:13.991Z,-3.15
2023-03-01T05:44:15.236Z,-3.23
2023-03-01T05:54:16.916Z,-3.30
2023-03-01T06:04:18.292Z,-3.25
2023-03-01T06:14:19.561Z,-3.29
2023-03-01T06:24:20.808Z,-3.27
2023-03-01T06:34:22.996Z,-3.22
2023-03-01T06:44:24.240Z,-3.07
2023-03-01T06:54:25.518Z,-2.85
2023-03-01T07:04:29.526Z,-2.68
2023-03-01T07:14:30.767Z,-2.55
2023-03-01T07:24:32.072Z,-2.29
2023-03-01T07:34:33.522Z,-1.98
2023-03-01T07:44:35.550Z,-1.71
2023-03-01T07:54:36.808Z,-1.24
2023-03-01T08:04:38.059Z,-0.96
2023-03-01T08:14:39.390Z,-0.53
2023-03-01T08:24:40.608Z,-0.22
2023-03-01T08:34:42.571Z,0.16
2023-03-01T08:44:45.966Z,0.41
2023-03-01T08:54:47.912Z,0.52
2023-03-01T09:04:49.136Z,0.91
2023-03-01T09:14:50.384Z,1.28
2023-03-01T09:24:51.618Z,1.56
2023-03-01T09:35:05.620Z,1.94
2023-03-01T09:45:07.012Z,2.11
2023-03-01T09:55:08.280Z,2.42
2023-03-01T10:05:09.572Z,2.76
2023-03-01T10:15:12.942Z,2.98
2023-03-01T10:25:14.226Z,3.29
2023-03-01T10:35:15.538Z,3.50
2023-03-01T10:45:16.888Z,3.61
2023-03-01T10:55:18.145Z,3.85
2023-03-01T11:05:20.496Z,4.11
2023-03-01T11:15:21.887Z,4.15
2023-03-01T11:25:23.170Z,4.46
2023-03-01T11:35:24.670Z,4.72
2023-03-01T11:45:25.972Z,4.83
2023-03-01T11:55:27.318Z,5.22
2023-03-01T12:05:28.577Z,5.23
2023-03-01T12:15:29.843Z,5.52
2023-03-01T12:25:32.150Z,5.69
2023-03-01T12:35:33.469Z,5.79
2023-03-01T12:45:34.765Z,5.79
2023-03-01T12:55:36.134Z,6.05
2023-03-01T13:05:37.673Z,6.29
2023-03-01T13:15:40.405Z,6.32
2023-03-01T13:25:43.073Z,6.56
2023-03-01T13:35:44.610Z,6.78
2023-03-01T13:45:45.902Z,6.89
2023-03-01T13:55:47.184Z,6.99
2023-03-01T14:05:48.407Z,7.29
2023-03-01T14:15:52.615Z,7.21
2023-03-01T14:25:53.834Z,7.17
2023-03-01T14:35:58.845Z,7.30
2023-03-01T14:46:00.214Z,7.50
2023-03-01T14:56:03.237Z,7.47
2023-03-01T15:06:04.484Z,7.62
2023-03-01T15:16:05.784Z,7.02
2023-03-01T15:26:07.080Z,7.28
2023-03-01T15:36:08.557Z,6.94
2023-03-01T15:46:09.805Z,6.85
2023-03-01T15:56:11.131Z,6.85
2023-03-01T16:06:12.478Z,6.75
2023-03-01T16:16:15.822Z,6.56
2023-03-01T16:26:18.477Z,6.46
2023-03-01T16:36:21.182Z,6.45
2023-03-01T16:46:22.588Z,6.25
2023-03-01T16:56:23.881Z,6.05
2023-03-01T17:06:27.530Z,6.04
2023-03-01T17:16:29.013Z,5.82
2023-03-01T17:26:30.554Z,5.56
2023-03-01T17:36:34.627Z,5.49
2023-03-01T17:46:35.906Z,5.38
2023-03-01T17:56:38.728Z,5.43
2023-03-01T18:06:40.852Z,5.20
2023-03-01T18:16:42.101Z,4.95
2023-03-01T18:26:43.307Z,4.52
2023-03-01T18:37:00.523Z,4.32
2023-03-01T18:47:05.990Z,4.10
2023-03-01T18:57:07.349Z,4.03
2023-03-01T19:07:08.881Z,3.91
2023-03-01T19:17:10.096Z,3.86
2023-03-01T19:27:11.306Z,3.81
2023-03-01T19:37:12.636Z,3.72
2023-03-01T19:47:13.914Z,3.58
2023-03-01T19:57:15.168Z,3.41
2023-03-01T20:07:16.414Z,3.26
2023-03-01T20:17:17.709Z,3.00
2023-03-01T20:27:18.938Z,2.82
2023-03-01T20:37:22.424Z,2.53
2023-03-01T20:47:23.813Z,2.38
2023-03-01T20:57:25.016Z,2.27
2023-03-01T21:07:26.269Z,2.09
2023-03-01T21:17:27.555Z,1.92
2023-03-01T21:27:28.813Z,1.85
2023-03-01T21:37:30.240Z,1.81
2023-03-01T21:47:31.529Z,1.74
2023-03-01T21:57:32.757Z,1.74
2023-03-01T22:07:33.983Z,1.60
2023-03-01T22:17:35.196Z,1.60
2023-03-01T22:27:37.495Z,1.45
2023-03-01T22:37:38.881Z,1.39
2023-03-01T22:47:40.220Z,1.22
2023-03-01T22:57:41.462Z,1.16
2023-03-01T23:07:42.738Z,1.01
2023-03-01T23:17:43.946Z,0.86
2023-03-01T23:27:45.229Z,0.72
2023-03-01T23:37:46.839Z,0.63
2023-03-01T23:47:48.090Z,0.52
2023-03-01T23:57:50.002Z,0.53
